Time;durP1;ratioP1;P1;durP2;ratioP2;P2;SDS_P1;SDS_P2;PMS_P1;PMS_P2;Temp;Humidity;BMP_temperature;BMP_pressure;BME280_temperature;BME280_humidity;BME280_pressure;Samples;Min_cycle;Max_cycle;Signal;HPM_P1;HPM_P2
2022/08/13 00:01:48;;;;;;;;;;;25.80;32.40;;;24.03;32.19;101556.31;12253916;19;19926;-89
2022/08/13 00:05:50;;;;;;;;;;;25.70;32.40;;;23.97;32.58;101551.59;12256822;19;20300;-89
2022/08/13 00:09:53;;;;;;;;;;;25.70;32.40;;;23.91;32.58;101554.88;12258561;19;19987;-89
2022/08/13 00:13:55;;;;;;;;;;;25.70;32.60;;;23.67;32.88;101545.59;12259112;19;19919;-89
2022/08/13 00:18:02;;;;;;;;;;;25.50;32.50;;;23.60;32.43;101550.69;12256325;19;19911;-89
2022/08/13 00:22:04;;;;;;;;;;;25.40;32.50;;;23.50;32.44;101541.06;12252189;19;19919;-89
2022/08/13 00:26:06;;;;;;;;;;;25.30;32.60;;;23.49;32.81;101544.72;12254367;19;19918;-89
2022/08/13 00:30:14;;;;;;;;;;;25.20;32.70;;;23.51;32.62;101556.91;12256779;19;19923;-89
2022/08/13 00:34:17;;;;;;;;;;;25.20;32.80;;;23.49;32.72;101548.22;12254932;19;19926;-89
2022/08/13 00:38:29;;;;;;;;;;;25.10;32.80;;;23.24;32.98;101512.44;12254593;19;19911;-89
2022/08/13 00:42:30;;;;;;;;;;;25.10;32.90;;;23.36;33.27;101537.91;12250243;19;20302;-89
2022/08/13 00:46:33;;;;;;;;;;;25.10;33.00;;;23.30;32.86;101527.84;12252725;19;19918;-89
2022/08/13 00:50:35;;;;;;;;;;;25.10;32.90;;;22.73;33.26;101447.16;12250009;19;20312;-89
2022/08/13 00:54:37;;;;;;;;;;;25.00;32.90;;;23.28;33.12;101545.00;12252918;19;19922;-89
2022/08/13 00:58:39;;;;;;;;;;;25.30;33.10;;;23.00;33.16;101504.16;12253078;19;20373;-89
2022/08/13 01:02:54;;;;;;;;;;;25.00;33.00;;;22.72;33.28;101461.47;12250442;19;19930;-89
2022/08/13 01:06:57;;;;;;;;;;;24.90;33.10;;;22.77;33.29;101483.19;12251643;19;19934;-89
2022/08/13 01:11:04;;;;;;;;;;;25.10;33.30;;;23.07;33.53;101519.41;12250757;19;19907;-88
2022/08/13 01:15:07;;;;;;;;;;;24.80;33.20;;;23.14;33.32;101535.63;12250521;19;19947;-89
2022/08/13 01:19:09;;;;;;;;;;;24.80;33.20;;;22.84;33.32;101486.91;12252206;19;19911;-89
2022/08/13 01:23:12;;;;;;;;;;;24.80;33.20;;;23.15;33.57;101545.31;12253356;19;19915;-89
2022/08/13 01:27:14;;;;;;;;;;;24.70;33.20;;;23.03;33.70;101520.66;12252511;19;19915;-89
2022/08/13 01:31:18;;;;;;;;;;;25.00;33.40;;;22.99;33.52;101531.78;12250370;19;19915;-89
2022/08/13 01:35:20;;;;;;;;;;;24.70;33.20;;;22.57;33.80;101468.25;12252328;19;19903;-89
2022/08/13 01:39:21;;;;;;;;;;;24.70;33.20;;;22.82;33.75;101510.22;12251569;19;19926;-89
2022/08/13 01:43:28;;;;;;;;;;;24.60;33.20;;;22.71;33.66;101500.59;12249627;19;19955;-89
2022/08/13 01:51:50;;;;;;;;;;;24.50;33.40;;;22.78;33.68;101515.97;12248115;19;20000;-89
2022/08/13 01:55:55;;;;;;;;;;;24.50;33.50;;;22.45;34.05;101463.09;12251265;19;20287;-89
2022/08/13 01:59:57;;;;;;;;;;;24.40;33.40;;;22.64;33.74;101506.63;12249239;19;20348;-89
2022/08/13 02:03:58;;;;;;;;;;;24.70;33.60;;;22.68;33.80;101526.63;12250957;19;20380;-89
2022/08/13 02:08:00;;;;;;;;;;;24.40;33.50;;;22.44;33.83;101496.03;12256153;19;19919;-89
2022/08/13 02:12:03;;;;;;;;;;;24.40;33.50;;;22.29;33.86;101478.81;12248934;19;19918;-89
2022/08/13 02:16:05;;;;;;;;;;;24.40;33.50;;;22.43;34.34;101506.81;12250984;19;20349;-89
2022/08/13 02:20:11;;;;;;;;;;;24.30;33.50;;;22.14;34.20;101466.91;12249082;19;19922;-89
2022/08/13 02:24:14;;;;;;;;;;;24.20;33.60;;;22.21;34.16;101481.34;12251422;19;19939;-90
2022/08/13 02:28:18;;;;;;;;;;;24.20;33.70;;;22.41;34.44;101519.41;12251703;19;19922;-89
2022/08/13 02:32:22;;;;;;;;;;;24.20;33.80;;;22.27;34.40;101507.38;12245247;19;20022;-89
2022/08/13 02:36:25;;;;;;;;;;;24.10;33.90;;;22.38;34.21;101522.34;12249304;19;19918;-90
2022/08/13 02:44:48;;;;;;;;;;;24.30;33.90;;;22.33;34.35;101514.78;12248234;19;19911;-89
2022/08/13 02:48:52;;;;;;;;;;;24.00;33.90;;;22.18;34.51;101495.78;12248308;19;19911;-89
2022/08/13 02:52:53;;;;;;;;;;;24.00;33.90;;;22.26;34.46;101521.69;12243758;19;19943;-89
2022/08/13 02:56:55;;;;;;;;;;;24.20;34.00;;;21.90;34.35;101473.50;12247817;19;20019;-89
2022/08/13 03:00:58;;;;;;;;;;;24.00;33.90;;;22.23;34.45;101522.81;12245451;19;19911;-90
2022/08/13 03:04:59;;;;;;;;;;;24.00;34.00;;;22.06;34.21;101505.72;12246108;19;19918;-89
2022/08/13 03:09:02;;;;;;;;;;;23.90;34.00;;;22.10;34.80;101508.91;12247448;19;19940;-89
2022/08/13 03:13:15;;;;;;;;;;;23.80;34.00;;;22.12;34.83;101516.78;12244168;19;19924;-89
2022/08/13 03:17:17;;;;;;;;;;;23.80;34.00;;;21.71;35.05;101452.22;12254412;19;19919;-89
2022/08/13 03:21:20;;;;;;;;;;;23.80;34.10;;;21.65;34.72;101454.44;12257679;19;19911;-89
2022/08/13 03:25:23;;;;;;;;;;;23.70;34.10;;;21.83;34.95;101488.34;12257410;19;19956;-89
2022/08/13 03:29:28;;;;;;;;;;;24.00;34.40;;;21.87;35.05;101501.22;12256653;19;19935;-89
2022/08/13 03:33:30;;;;;;;;;;;24.00;34.30;;;21.54;34.83;101440.47;12260493;19;19951;-89
2022/08/13 03:37:34;;;;;;;;;;;23.60;34.30;;;21.93;34.87;101498.97;12259134;19;19923;-89
2022/08/13 03:41:37;;;;;;;;;;;23.60;34.30;;;21.71;35.34;101468.16;12255891;19;20252;-88
2022/08/13 03:45:39;;;;;;;;;;;23.60;34.30;;;21.64;35.07;101463.41;12257092;19;19915;-88
2022/08/13 03:49:40;;;;;;;;;;;23.60;34.40;;;21.47;34.91;101434.88;12261126;19;19915;-89
2022/08/13 03:53:45;;;;;;;;;;;23.50;34.50;;;21.41;35.47;101425.63;12260062;19;19911;-89
2022/08/13 03:57:47;;;;;;;;;;;23.50;34.50;;;21.59;35.34;101467.47;12259127;19;20333;-89
2022/08/13 04:01:53;;;;;;;;;;;23.80;34.50;;;21.56;35.27;101470.41;12254148;19;19944;-89
2022/08/13 04:05:58;;;;;;;;;;;23.40;34.40;;;21.51;35.32;101478.78;12257330;19;19929;-89
2022/08/13 04:09:59;;;;;;;;;;;23.40;34.40;;;20.99;35.39;101415.16;12258308;19;19927;-89
2022/08/13 04:14:01;;;;;;;;;;;23.50;34.40;;;20.87;35.31;101415.41;12259328;19;20326;-89
2022/08/13 04:18:03;;;;;;;;;;;23.40;34.60;;;20.83;35.79;101409.53;12259253;19;20338;-89
2022/08/13 04:22:06;;;;;;;;;;;23.20;34.60;;;20.82;35.64;101412.31;12255252;19;19923;-89
2022/08/13 04:26:09;;;;;;;;;;;23.10;34.60;;;20.84;35.74;101416.50;12252609;19;19931;-89
2022/08/13 04:30:11;;;;;;;;;;;23.20;34.70;;;20.88;35.55;101427.72;12251353;19;19914;-88
2022/08/13 04:34:12;;;;;;;;;;;23.10;34.70;;;20.82;35.73;101423.78;12253996;19;19974;-89
2022/08/13 04:38:15;;;;;;;;;;;23.10;34.80;;;21.24;35.76;101489.19;12255282;19;20262;-89
2022/08/13 04:42:16;;;;;;;;;;;23.10;34.80;;;21.07;35.88;101459.63;12253122;19;20325;-88
2022/08/13 04:46:17;;;;;;;;;;;23.00;34.80;;;21.11;35.92;101452.22;12252624;19;19915;-88
2022/08/13 04:50:19;;;;;;;;;;;23.00;34.90;;;20.62;35.79;101372.41;12252175;19;19927;-89
2022/08/13 04:54:20;;;;;;;;;;;22.90;35.00;;;20.87;35.83;101412.75;12255698;19;19949;-88
2022/08/13 04:58:23;;;;;;;;;;;23.10;35.10;;;21.20;36.06;101454.09;12254917;19;20255;-88
2022/08/13 05:02:25;;;;;;;;;;;23.10;35.10;;;21.16;35.95;101442.03;12249915;19;20498;-87
2022/08/13 05:06:27;;;;;;;;;;;23.10;35.30;;;20.81;35.91;101368.16;12252376;19;19971;-87
2022/08/13 05:10:31;;;;;;;;;;;23.10;35.20;;;21.09;35.72;101406.38;12252834;19;19915;-88
2022/08/13 05:14:35;;;;;;;;;;;23.10;35.10;;;21.31;36.11;101438.03;12254275;19;19922;-87
2022/08/13 05:18:42;;;;;;;;;;;23.20;35.20;;;21.62;35.98;101483.13;12254919;19;19918;-87
2022/08/13 05:22:43;;;;;;;;;;;23.30;35.20;;;21.06;36.31;101370.28;12250147;19;19911;-87
2022/08/13 05:26:45;;;;;;;;;;;23.40;35.20;;;21.55;36.08;101453.63;12253646;19;19922;-87
2022/08/13 05:30:47;;;;;;;;;;;23.40;35.20;;;21.28;36.22;101409.09;12253846;19;19943;-87
2022/08/13 05:34:49;;;;;;;;;;;23.40;35.30;;;21.74;36.26;101471.41;12256078;19;19919;-92
2022/08/13 05:38:52;;;;;;;;;;;23.60;35.40;;;21.78;36.18;101467.47;12252888;19;19928;-90
2022/08/13 05:42:56;;;;;;;;;;;23.70;35.60;;;21.95;36.18;101475.72;12252086;19;19927;-91
2022/08/13 05:46:57;;;;;;;;;;;23.60;35.60;;;21.62;36.48;101400.72;12250580;19;19911;-89
2022/08/13 05:51:00;;;;;;;;;;;23.90;35.80;;;22.13;36.29;101468.72;12249032;19;19930;-90
2022/08/13 05:55:05;;;;;;;;;;;23.80;35.70;;;22.03;36.25;101434.13;12248762;19;19925;-91
2022/08/13 06:03:22;;;;;;;;;;;23.90;35.70;;;22.21;36.47;101434.28;12248402;19;19967;-92
2022/08/13 06:03:29;;;;;;;;;;;24.00;35.70;;;22.52;36.35;101458.03;12246328;19;19930;-90
2022/08/13 06:07:31;;;;;;;;;;;24.10;35.80;;;22.59;36.39;101444.97;12251566;19;19923;-91
2022/08/13 06:11:33;;;;;;;;;;;24.30;36.00;;;22.79;36.69;101459.06;12247019;19;19918;-91
2022/08/13 06:15:35;;;;;;;;;;;24.40;36.00;;;22.49;36.77;101379.31;12248946;19;19923;-89
2022/08/13 06:19:36;;;;;;;;;;;24.50;35.90;;;23.02;36.46;101432.91;12250892;19;19915;-85
2022/08/13 06:23:40;;;;;;;;;;;24.70;35.90;;;23.06;36.56;101412.97;12256684;19;19922;-86
2022/08/13 06:27:42;;;;;;;;;;;25.10;35.70;;;23.57;36.65;101471.00;12258113;19;19927;-85
2022/08/13 06:31:44;;;;;;;;;;;25.20;35.90;;;23.69;36.74;101465.44;12255018;19;19914;-86
2022/08/13 06:35:48;;;;;;;;;;;25.20;35.70;;;23.80;36.36;101465.25;12257670;19;19922;-85
2022/08/13 06:39:50;;;;;;;;;;;25.40;35.50;;;23.86;36.84;101453.94;12248811;19;19926;-87
2022/08/13 06:43:53;;;;;;;;;;;25.80;35.80;;;24.10;36.79;101466.66;12249827;19;19919;-86
2022/08/13 06:47:56;;;;;;;;;;;25.60;35.70;;;24.19;36.91;101452.38;12247656;19;19922;-87
2022/08/13 06:51:58;;;;;;;;;;;25.80;36.10;;;24.37;36.32;101462.19;12255551;19;19931;-87
2022/08/13 06:56:01;;;;;;;;;;;25.90;35.80;;;24.34;36.66;101435.78;12260580;19;19915;-86
2022/08/13 07:00:10;;;;;;;;;;;26.00;35.90;;;24.59;36.69;101463.50;12262052;19;19918;-86
2022/08/13 07:04:20;;;;;;;;;;;26.20;35.90;;;24.70;36.66;101469.41;12259639;19;19971;-85
2022/08/13 07:08:22;;;;;;;;;;;26.40;35.90;;;24.82;36.66;101477.16;12259776;19;19911;-85
2022/08/13 07:12:24;;;;;;;;;;;26.40;36.00;;;24.92;36.75;101469.84;12253939;19;19915;-86
2022/08/13 07:16:32;;;;;;;;;;;26.60;36.00;;;24.90;36.83;101442.47;12263150;19;21286;-86
2022/08/13 07:20:35;;;;;;;;;;;26.60;35.90;;;25.08;36.94;101453.03;12257806;19;19919;-87
2022/08/13 07:24:37;;;;;;;;;;;26.70;36.00;;;25.40;36.82;101481.72;12256429;19;19918;-87
2022/08/13 07:28:40;;;;;;;;;;;26.80;35.60;;;25.23;36.82;101419.38;12257489;19;19974;-87
2022/08/13 07:32:42;;;;;;;;;;;27.00;35.80;;;25.70;36.90;101468.75;12259756;19;20026;-87
2022/08/13 07:36:43;;;;;;;;;;;27.20;36.10;;;25.82;37.05;101467.44;12266196;19;19915;-87
2022/08/13 07:40:53;;;;;;;;;;;27.30;35.90;;;25.91;37.01;101470.97;12262573;19;19919;-87
2022/08/13 07:44:54;;;;;;;;;;;27.70;36.10;;;26.04;36.47;101480.16;12264296;19;19911;-87
2022/08/13 07:48:57;;;;;;;;;;;27.60;36.10;;;25.97;36.81;101457.75;12265193;19;19922;-87
2022/08/13 07:52:59;;;;;;;;;;;27.70;36.10;;;26.22;36.87;101485.34;12262012;19;19907;-87
2022/08/13 07:57:00;;;;;;;;;;;27.80;36.10;;;26.26;36.57;101475.13;12265040;19;20333;-87
2022/08/13 08:01:04;;;;;;;;;;;27.80;36.00;;;26.34;36.57;101483.16;12261690;19;19979;-86
2022/08/13 08:05:12;;;;;;;;;;;27.90;36.10;;;26.30;36.84;101463.06;12259669;19;19920;-86
2022/08/13 08:09:22;;;;;;;;;;;28.00;36.10;;;26.42;37.03;101475.09;12260443;19;20274;-87
2022/08/13 08:13:26;;;;;;;;;;;28.10;36.10;;;26.47;37.06;101488.84;12260967;19;19917;-87
2022/08/13 08:17:29;;;;;;;;;;;28.20;36.20;;;26.39;36.99;101467.41;12261035;19;19925;-87
2022/08/13 08:21:32;;;;;;;;;;;28.20;36.00;;;26.56;36.63;101496.88;12258876;19;19914;-86
2022/08/13 08:25:34;;;;;;;;;;;28.20;36.00;;;26.51;36.70;101480.44;12259331;19;19927;-86
2022/08/13 08:29:37;;;;;;;;;;;28.30;36.10;;;26.53;36.99;101490.03;12261639;19;19939;-87
2022/08/13 08:33:41;;;;;;;;;;;28.40;36.30;;;26.54;36.86;101480.97;12259796;19;19915;-87
2022/08/13 08:42:35;;;;;;;;;;;28.30;36.10;;;26.70;37.18;101472.88;12255982;19;19911;-87
2022/08/13 08:46:37;;;;;;;;;;;28.40;36.20;;;26.76;36.97;101474.06;12255487;19;19919;-87
2022/08/13 08:50:38;;;;;;;;;;;28.50;36.20;;;26.91;37.35;101477.66;12256517;19;19915;-87
2022/08/13 08:54:40;;;;;;;;;;;28.50;36.10;;;26.91;37.05;101466.13;12259487;19;19922;-87
2022/08/13 08:58:42;;;;;;;;;;;28.60;36.10;;;27.16;37.07;101474.88;12259274;19;19911;-87
2022/08/13 09:02:46;;;;;;;;;;;28.70;36.20;;;27.24;36.74;101457.94;12252499;19;19950;-88
2022/08/13 09:06:52;;;;;;;;;;;28.80;36.10;;;27.46;36.73;101461.66;12255441;19;20314;-89
2022/08/13 09:10:55;;;;;;;;;;;28.90;36.70;;;27.38;36.77;101422.31;12255371;19;19922;-88
2022/08/13 09:14:57;;;;;;;;;;;29.10;36.20;;;27.77;36.64;101466.97;12256046;19;19958;-88
2022/08/13 09:18:59;;;;;;;;;;;29.20;36.00;;;27.83;36.69;101460.91;12258242;19;19921;-87
2022/08/13 09:23:08;;;;;;;;;;;29.30;35.80;;;27.89;36.90;101460.19;12255511;19;19911;-87
2022/08/13 09:27:15;;;;;;;;;;;29.30;35.90;;;27.96;36.99;101468.38;12252608;19;19982;-89
2022/08/13 09:31:16;;;;;;;;;;;29.50;36.00;;;28.01;36.72;101458.75;12252669;19;19919;-88
2022/08/13 09:35:18;;;;;;;;;;;29.50;35.80;;;27.84;37.06;101437.59;12255692;19;19919;-89
2022/08/13 09:39:31;;;;;;;;;;;29.60;35.80;;;28.12;36.65;101470.91;12254350;19;19938;-89
2022/08/13 09:43:40;;;;;;;;;;;29.60;35.80;;;28.09;36.84;101448.97;12257516;19;19907;-89
2022/08/13 09:47:42;;;;;;;;;;;29.60;35.70;;;28.22;37.09;101459.91;12258022;19;19918;-88
2022/08/13 09:51:43;;;;;;;;;;;29.70;35.80;;;28.16;36.72;101447.19;12251449;19;19922;-88
2022/08/13 09:55:45;;;;;;;;;;;29.80;35.80;;;28.23;36.77;101464.25;12257001;19;19921;-88
2022/08/13 09:59:47;;;;;;;;;;;29.80;35.90;;;28.33;36.45;101461.31;12254824;19;19915;-88
2022/08/13 10:03:50;;;;;;;;;;;29.80;35.70;;;28.31;36.92;101461.50;12254168;19;20289;-88
2022/08/13 10:07:53;;;;;;;;;;;29.80;35.80;;;28.24;36.76;101447.94;12255166;19;19927;-89
2022/08/13 10:11:54;;;;;;;;;;;29.80;36.40;;;28.08;37.06;101431.16;12249127;19;19923;-88
2022/08/13 10:15:56;;;;;;;;;;;29.80;35.50;;;28.30;37.14;101467.03;12255716;19;20249;-87
2022/08/13 10:19:57;;;;;;;;;;;29.90;35.80;;;28.11;36.85;101438.84;12252542;19;19939;-90
2022/08/13 10:23:58;;;;;;;;;;;29.90;35.70;;;28.23;36.82;101469.63;12252836;19;20325;-90
2022/08/13 10:28:00;;;;;;;;;;;29.80;35.90;;;28.00;36.88;101432.06;12263158;19;19919;-89
2022/08/13 10:32:02;;;;;;;;;;;29.80;35.90;;;27.82;37.03;101404.75;12263773;19;19914;-90
2022/08/13 10:36:05;;;;;;;;;;;29.80;35.80;;;27.83;37.17;101414.44;12264295;19;20318;-89
2022/08/13 10:40:07;;;;;;;;;;;29.70;36.10;;;28.08;37.20;101464.22;12262191;19;19949;-88
2022/08/13 10:44:09;;;;;;;;;;;29.70;36.20;;;27.68;37.17;101398.25;12263542;19;19918;-88
2022/08/13 10:48:13;;;;;;;;;;;29.90;36.10;;;27.62;37.14;101402.50;12262994;19;20330;-89
2022/08/13 10:52:20;;;;;;;;;;;29.60;36.00;;;27.60;37.46;101407.25;12258135;19;19922;-88
2022/08/13 10:56:22;;;;;;;;;;;29.50;36.00;;;27.84;37.36;101445.63;12263984;19;19982;-87
2022/08/13 11:00:24;;;;;;;;;;;29.50;36.10;;;27.63;37.67;101422.16;12261246;19;19982;-88
2022/08/13 11:04:29;;;;;;;;;;;29.40;36.20;;;27.75;37.63;101434.94;12261015;19;19984;-87
2022/08/13 11:08:36;;;;;;;;;;;29.40;36.20;;;27.69;37.46;101416.88;12264194;19;19923;-89
2022/08/13 11:12:50;;;;;;;;;;;29.40;36.20;;;27.86;37.24;101427.50;12258823;19;19914;-88
2022/08/13 11:16:57;;;;;;;;;;;29.40;36.30;;;27.96;37.45;101428.09;12263707;19;19944;-88
2022/08/13 11:21:06;;;;;;;;;;;29.50;36.30;;;27.98;37.24;101416.16;12265003;19;19928;-88
2022/08/13 11:25:08;;;;;;;;;;;29.50;36.40;;;28.10;37.36;101431.81;12261915;19;19927;-88
2022/08/13 11:29:09;;;;;;;;;;;29.60;36.30;;;28.00;37.29;101414.13;12260184;19;19931;-88
2022/08/13 11:33:10;;;;;;;;;;;29.60;36.30;;;28.13;37.24;101432.28;12263213;19;19947;-87
2022/08/13 11:37:12;;;;;;;;;;;29.60;36.30;;;28.11;37.10;101425.41;12260394;19;19990;-87
2022/08/13 11:41:14;;;;;;;;;;;29.80;36.20;;;28.05;37.35;101424.31;12259278;19;20281;-88
2022/08/13 11:45:15;;;;;;;;;;;29.60;36.20;;;28.01;37.65;101412.28;12259049;19;19918;-87
2022/08/13 11:49:17;;;;;;;;;;;29.60;36.30;;;28.01;37.48;101421.16;12258952;19;19919;-88
2022/08/13 11:53:19;;;;;;;;;;;29.60;36.40;;;28.00;37.42;101408.75;12255189;19;19932;-87
2022/08/13 11:57:20;;;;;;;;;;;29.60;36.20;;;27.99;37.78;101412.44;12259385;19;19918;-88
2022/08/13 12:01:22;;;;;;;;;;;29.50;36.60;;;27.94;37.68;101409.47;12253473;19;19936;-87
2022/08/13 12:05:24;;;;;;;;;;;29.60;36.30;;;28.01;37.49;101409.59;12258400;19;19927;-88
2022/08/13 12:09:26;;;;;;;;;;;29.60;36.50;;;27.97;37.61;101403.72;12257207;19;19915;-86
2022/08/13 12:13:27;;;;;;;;;;;29.60;36.40;;;28.04;37.46;101400.34;12259149;19;19937;-89
2022/08/13 12:17:29;;;;;;;;;;;29.50;36.20;;;27.86;37.63;101365.75;12258859;19;19910;-88
2022/08/13 12:21:32;;;;;;;;;;;29.80;36.50;;;27.85;37.38;101353.38;12256300;19;19911;-88
2022/08/13 12:25:35;;;;;;;;;;;29.60;36.30;;;28.15;37.84;101397.19;12257761;19;19943;-89
2022/08/13 12:29:36;;;;;;;;;;;29.60;36.40;;;28.12;37.90;101384.13;12257076;19;19911;-87
2022/08/13 12:33:38;;;;;;;;;;;29.60;36.80;;;28.18;37.90;101384.22;12257802;19;19918;-87
2022/08/13 12:37:39;;;;;;;;;;;29.70;36.20;;;28.29;37.61;101382.09;12255897;19;19919;-87
2022/08/13 12:41:41;;;;;;;;;;;29.80;37.40;;;28.12;37.39;101350.06;12253185;19;19915;-87
2022/08/13 12:45:43;;;;;;;;;;;30.00;37.60;;;28.26;37.59;101358.28;12252848;19;20027;-87
2022/08/13 12:49:44;;;;;;;;;;;29.80;37.00;;;28.17;37.94;101339.59;12260525;19;19915;-87
2022/08/13 12:53:46;;;;;;;;;;;29.90;36.30;;;28.15;37.81;101309.38;12260990;19;19926;-87
2022/08/13 12:57:48;;;;;;;;;;;29.90;36.60;;;28.20;37.95;101303.47;12260005;19;19932;-87
2022/08/13 13:01:53;;;;;;;;;;;30.00;36.50;;;28.37;37.46;101301.41;12258664;19;19911;-87
2022/08/13 13:05:55;;;;;;;;;;;30.10;36.80;;;28.31;37.63;101265.38;12259628;19;20358;-87
2022/08/13 13:09:59;;;;;;;;;;;30.30;36.50;;;28.39;37.34;101241.09;12253440;19;19943;-87
2022/08/13 13:14:00;;;;;;;;;;;30.40;36.30;;;28.72;37.40;101289.03;12255830;19;19935;-88
2022/08/13 13:18:01;;;;;;;;;;;30.40;36.50;;;28.52;37.28;101243.13;12255687;19;19939;-89
2022/08/13 13:22:03;;;;;;;;;;;30.60;36.50;;;28.86;37.60;101284.59;12254080;19;19914;-87
2022/08/13 13:26:04;;;;;;;;;;;30.60;36.20;;;29.05;37.42;101283.16;12252667;19;19930;-88
2022/08/13 13:30:09;;;;;;;;;;;30.70;36.50;;;29.23;37.44;101274.66;12252673;19;19945;-88
2022/08/13 13:34:10;;;;;;;;;;;30.80;36.40;;;29.51;37.32;101293.47;12254848;19;19943;-87
2022/08/13 13:38:16;;;;;;;;;;;31.00;36.30;;;29.61;36.96;101272.44;12254721;19;20284;-87
2022/08/13 13:42:17;;;;;;;;;;;31.20;36.30;;;29.54;36.88;101244.63;12253947;19;19914;-87
2022/08/13 13:46:18;;;;;;;;;;;31.30;36.20;;;29.43;37.07;101224.47;12255155;19;19918;-87
2022/08/13 13:50:20;;;;;;;;;;;31.40;36.20;;;29.72;36.76;101266.53;12255189;19;19927;-87
2022/08/13 13:54:21;;;;;;;;;;;31.50;36.10;;;29.85;36.97;101271.19;12257428;19;19918;-87
2022/08/13 13:58:23;;;;;;;;;;;31.60;36.20;;;29.88;37.25;101254.63;12247392;19;19963;-87
2022/08/13 14:02:25;;;;;;;;;;;31.60;36.10;;;30.15;36.77;101266.34;12242262;19;19914;-87
2022/08/13 14:06:26;;;;;;;;;;;31.70;36.20;;;30.32;36.71;101268.72;12246437;19;19923;-87
2022/08/13 14:10:30;;;;;;;;;;;31.80;36.10;;;30.16;36.93;101245.63;12246194;19;20242;-86
2022/08/13 14:14:32;;;;;;;;;;;31.90;36.00;;;30.14;36.79;101220.75;12247083;19;19915;-87
2022/08/13 14:18:35;;;;;;;;;;;31.90;36.00;;;29.98;36.43;101198.53;12251485;19;19911;-88
2022/08/13 14:22:37;;;;;;;;;;;31.90;35.90;;;30.62;36.64;101277.31;12247604;19;19919;-89
2022/08/13 14:26:39;;;;;;;;;;;32.10;36.00;;;30.44;36.63;101223.97;12248740;19;19935;-88
2022/08/13 14:30:42;;;;;;;;;;;32.00;35.90;;;30.63;36.60;101239.38;12249435;19;19923;-89
2022/08/13 14:34:44;;;;;;;;;;;32.10;35.90;;;30.36;36.87;101184.56;12251642;19;19922;-87
2022/08/13 14:38:45;;;;;;;;;;;32.20;35.90;;;30.84;36.48;101234.88;12251850;19;19922;-87
2022/08/13 14:42:52;;;;;;;;;;;32.30;35.90;;;30.69;36.53;101193.75;12247119;19;19991;-87
2022/08/13 14:46:54;;;;;;;;;;;32.40;35.80;;;30.71;36.33;101181.72;12247347;19;19922;-87
2022/08/13 14:51:04;;;;;;;;;;;32.50;35.80;;;31.16;36.26;101241.28;12245664;19;19983;-87
2022/08/13 14:55:07;;;;;;;;;;;32.60;35.80;;;31.00;36.60;101198.53;12247679;19;19922;-87
2022/08/13 14:59:09;;;;;;;;;;;32.70;35.80;;;30.84;36.05;101170.97;12248972;19;19944;-87
2022/08/13 15:03:14;;;;;;;;;;;32.90;35.90;;;31.41;36.34;101246.09;12246627;19;20334;-87
2022/08/13 15:07:15;;;;;;;;;;;32.80;35.70;;;31.46;36.16;101240.88;12242163;19;19919;-87
2022/08/13 15:11:18;;;;;;;;;;;32.80;35.60;;;31.45;36.05;101237.34;12242357;19;19927;-86
2022/08/13 15:15:21;;;;;;;;;;;32.90;35.60;;;31.11;36.07;101187.13;12255057;19;19934;-87
2022/08/13 15:19:23;;;;;;;;;;;32.90;35.50;;;31.43;36.02;101238.59;12254903;19;19938;-88
2022/08/13 15:23:25;;;;;;;;;;;32.90;35.50;;;31.41;35.92;101233.44;12255568;19;19933;-87
2022/08/13 15:27:57;;;;;;;;;;;32.90;35.60;;;30.97;36.19;101169.28;12252536;19;19919;-87
2022/08/13 15:31:59;;;;;;;;;;;32.80;35.40;;;31.27;35.92;101212.84;12252465;19;20330;-89
2022/08/13 15:36:02;;;;;;;;;;;32.80;35.50;;;31.08;36.04;101184.84;12257751;19;19926;-86
2022/08/13 15:40:05;;;;;;;;;;;32.80;35.50;;;31.25;36.31;101199.56;12254490;19;19923;-87
2022/08/13 15:44:06;;;;;;;;;;;32.80;35.50;;;31.29;36.30;101200.78;12254484;19;19915;-87
2022/08/13 15:48:10;;;;;;;;;;;32.80;35.50;;;31.32;36.37;101196.84;12255925;19;19907;-87
2022/08/13 15:52:17;;;;;;;;;;;32.80;35.80;;;31.33;36.23;101193.13;12248671;19;19914;-86
2022/08/13 15:56:25;;;;;;;;;;;32.80;35.40;;;31.35;36.22;101188.31;12252356;19;19915;-86
2022/08/13 16:00:26;;;;;;;;;;;32.80;35.40;;;31.35;36.06;101180.22;12246812;19;19919;-87
2022/08/13 16:04:32;;;;;;;;;;;32.90;35.40;;;31.45;36.03;101194.16;12251154;19;19919;-86
2022/08/13 16:08:34;;;;;;;;;;;32.90;35.50;;;31.52;36.17;101189.56;12252752;19;19962;-88
2022/08/13 16:12:35;;;;;;;;;;;32.90;35.40;;;31.41;35.92;101167.81;12249526;19;19948;-88
2022/08/13 16:16:37;;;;;;;;;;;33.00;35.50;;;31.46;35.94;101170.69;12253278;19;19919;-88
2022/08/13 16:20:41;;;;;;;;;;;32.90;35.30;;;31.56;36.05;101179.16;12248214;19;19907;-86
2022/08/13 16:24:42;;;;;;;;;;;33.00;35.40;;;31.48;35.84;101165.91;12249251;19;19919;-87
2022/08/13 16:28:45;;;;;;;;;;;33.00;35.50;;;31.53;35.64;101174.19;12252676;19;20333;-87
2022/08/13 16:32:47;;;;;;;;;;;33.00;35.40;;;31.42;35.70;101151.38;12246875;19;20328;-87
2022/08/13 16:36:51;;;;;;;;;;;33.00;35.40;;;31.48;35.82;101155.09;12253230;19;19911;-87
2022/08/13 16:40:55;;;;;;;;;;;33.00;35.40;;;31.47;36.06;101153.47;12244087;19;19926;-86
2022/08/13 16:45:00;;;;;;;;;;;33.00;35.40;;;31.53;35.86;101160.69;12250674;19;19929;-86
2022/08/13 16:49:03;;;;;;;;;;;33.10;35.40;;;31.49;35.61;101159.47;12253596;19;19935;-86
2022/08/13 16:53:08;;;;;;;;;;;33.00;35.30;;;31.45;35.79;101155.53;12252905;19;19919;-88
2022/08/13 16:57:09;;;;;;;;;;;33.00;35.40;;;31.39;35.88;101135.63;12253001;19;20316;-87
2022/08/13 17:01:30;;;;;;;;;;;33.00;35.40;;;31.46;35.82;101139.13;12244802;19;21216;-88
2022/08/13 17:09:52;;;;;;;;;;;33.00;35.50;;;31.45;35.80;101132.06;12251352;19;19918;-89
2022/08/13 17:13:55;;;;;;;;;;;33.00;35.60;;;31.49;35.50;101135.19;12256303;19;19915;-88
2022/08/13 17:17:56;;;;;;;;;;;33.00;35.60;;;31.39;36.00;101126.69;12259442;19;20333;-87
2022/08/13 17:21:59;;;;;;;;;;;32.90;35.50;;;31.21;35.64;101101.16;12257852;19;19919;-88
2022/08/13 17:26:03;;;;;;;;;;;32.90;35.60;;;31.08;35.80;101088.56;12258549;19;20004;-88
2022/08/13 17:30:07;;;;;;;;;;;32.90;35.70;;;31.14;36.20;101111.16;12261780;19;19990;-85
2022/08/13 17:34:09;;;;;;;;;;;32.90;35.80;;;31.20;36.02;101126.50;12261609;19;19940;-86
2022/08/13 17:38:10;;;;;;;;;;;32.80;35.60;;;31.22;36.00;101145.19;12263527;19;19923;-87
2022/08/13 17:42:12;;;;;;;;;;;32.80;35.50;;;31.14;35.94;101138.16;12254512;19;19926;-86
2022/08/13 17:46:16;;;;;;;;;;;32.70;35.50;;;31.03;35.97;101136.91;12258170;19;19918;-86
2022/08/13 17:50:18;;;;;;;;;;;32.60;35.60;;;30.93;36.20;101128.41;12256091;19;19990;-89
2022/08/13 17:54:22;;;;;;;;;;;32.60;35.80;;;30.87;36.02;101131.97;12257219;19;19923;-89
2022/08/13 17:58:27;;;;;;;;;;;32.50;35.70;;;30.92;36.16;101142.09;12256106;19;19917;-89
2022/08/13 18:02:29;;;;;;;;;;;32.50;35.90;;;30.81;35.93;101133.63;12252344;19;19974;-87
2022/08/13 18:06:32;;;;;;;;;;;32.40;35.90;;;30.33;36.14;101061.00;12255332;19;19915;-88
2022/08/13 18:10:35;;;;;;;;;;;32.40;36.20;;;30.73;36.41;101147.28;12256285;19;19922;-88
2022/08/13 18:14:36;;;;;;;;;;;32.50;36.00;;;30.72;36.37;101156.41;12254276;19;19919;-87
2022/08/13 18:18:38;;;;;;;;;;;32.20;35.80;;;30.36;36.37;101106.41;12256911;19;19951;-91
2022/08/13 18:22:40;;;;;;;;;;;32.30;35.90;;;30.54;36.10;101148.09;12249418;19;19971;-91
2022/08/13 18:26:41;;;;;;;;;;;32.10;35.90;;;30.27;36.03;101113.03;12248874;19;19918;-91
2022/08/13 18:30:43;;;;;;;;;;;32.10;36.10;;;30.46;36.42;101140.19;12248953;19;19918;-91